Time;durP1;ratioP1;P1;durP2;ratioP2;P2;SDS_P1;SDS_P2;PMS_P1;PMS_P2;Temp;Humidity;BMP_temperature;BMP_pressure;BME280_temperature;BME280_humidity;BME280_pressure;Samples;Min_cycle;Max_cycle;Signal;HPM_P1;HPM_P2
2022/05/27 00:00:52;;;;;;;7.32;2.42;;;;;;;15.26;78.61;101913.53;5117574;28;20031;-62
2022/05/27 00:03:18;;;;;;;9.90;2.75;;;;;;;15.31;78.33;101905.56;5117860;28;20081;-63
2022/05/27 00:05:43;;;;;;;5.22;2.50;;;;;;;15.33;78.20;101909.03;5117414;28;20031;-64
2022/05/27 00:08:10;;;;;;;9.65;2.90;;;;;;;15.22;79.10;101917.13;5117384;28;20426;-62
2022/05/27 00:10:35;;;;;;;7.38;2.47;;;;;;;15.29;78.24;101900.28;5117244;28;20032;-61
2022/05/27 00:13:01;;;;;;;4.22;2.55;;;;;;;15.26;79.02;101910.00;5117150;28;20039;-62
2022/05/27 00:15:26;;;;;;;7.35;2.38;;;;;;;15.25;78.62;101888.03;5117224;28;20027;-61
2022/05/27 00:17:51;;;;;;;6.78;2.55;;;;;;;15.23;79.16;101907.44;5117291;28;20061;-63
2022/05/27 00:20:17;;;;;;;5.60;2.22;;;;;;;15.21;79.28;101896.94;5117169;28;20054;-61
2022/05/27 00:22:42;;;;;;;7.57;2.65;;;;;;;15.24;79.30;101888.06;5117020;28;20055;-62
2022/05/27 00:25:08;;;;;;;8.77;2.83;;;;;;;15.33;78.90;101887.94;5116784;28;20032;-63
2022/05/27 00:27:33;;;;;;;5.28;2.42;;;;;;;15.14;80.15;101883.84;5117005;28;20510;-61
2022/05/27 00:29:59;;;;;;;6.45;2.40;;;;;;;15.17;79.95;101883.81;5116704;28;20110;-63
2022/05/27 00:32:24;;;;;;;7.80;2.60;;;;;;;15.17;80.16;101897.88;5117104;28;20050;-62
2022/05/27 00:34:49;;;;;;;8.82;2.55;;;;;;;15.28;79.60;101888.00;5116884;28;20487;-62
2022/05/27 00:37:15;;;;;;;7.05;2.47;;;;;;;15.20;80.05;101884.63;5116176;28;20046;-62
2022/05/27 00:39:40;;;;;;;7.05;2.67;;;;;;;15.16;80.25;101893.47;5116756;28;20027;-61
2022/05/27 00:42:07;;;;;;;5.70;2.63;;;;;;;15.18;80.12;101891.69;5116546;28;20036;-63
2022/05/27 00:44:33;;;;;;;8.48;2.40;;;;;;;15.24;80.19;101888.06;5116639;28;20047;-62
2022/05/27 00:47:12;;;;;;;8.05;2.80;;;;;;;15.20;80.07;101883.75;5116408;28;20072;-61
2022/05/27 00:49:44;;;;;;;6.53;2.83;;;;;;;15.25;80.03;101881.91;5116701;28;20035;-61
2022/05/27 00:52:12;;;;;;;8.98;2.42;;;;;;;15.19;80.31;101890.81;5116455;28;20308;-62
2022/05/27 00:54:39;;;;;;;8.38;2.75;;;;;;;15.20;80.17;101882.00;5116397;28;20039;-61
2022/05/27 00:57:09;;;;;;;7.75;2.65;;;;;;;15.15;80.62;101881.19;5116348;28;20112;-61
2022/05/27 00:59:52;;;;;;;8.13;3.03;;;;;;;15.25;80.63;101881.91;5116199;28;20035;-61
2022/05/27 01:02:18;;;;;;;7.20;2.50;;;;;;;15.15;81.45;101885.59;5116336;28;20046;-62
2022/05/27 01:04:44;;;;;;;8.60;2.92;;;;;;;15.16;81.78;101874.16;5116081;28;20050;-61
2022/05/27 01:07:10;;;;;;;5.20;2.58;;;;;;;15.10;82.57;101883.03;5116256;28;20031;-61
2022/05/27 01:09:38;;;;;;;7.03;2.92;;;;;;;15.05;83.35;101876.09;5116016;28;20042;-62
2022/05/27 01:12:29;;;;;;;9.48;3.50;;;;;;;14.94;84.70;101878.88;5115639;28;20140;-61
2022/05/27 01:15:09;;;;;;;10.00;3.50;;;;;;;14.90;85.11;101880.69;5116028;28;20035;-61
2022/05/27 01:18:05;;;;;;;10.80;3.42;;;;;;;14.96;85.04;101883.25;5098204;28;20035;-61
2022/05/27 01:20:40;;;;;;;9.65;3.70;;;;;;;14.75;87.16;101875.63;5116195;28;20167;-61
2022/05/27 01:23:37;;;;;;;10.60;4.38;;;;;;;14.80;86.74;101878.22;5115577;28;20047;-62
2022/05/27 01:26:31;;;;;;;12.80;4.00;;;;;;;14.73;89.60;101874.78;5115798;28;20046;-61
2022/05/27 01:29:21;;;;;;;7.45;3.83;;;;;;;14.54;88.85;101882.09;5116018;28;20039;-63
2022/05/27 01:31:50;;;;;;;10.73;4.15;;;;;;;14.41;91.56;101877.84;5115721;28;20043;-61
2022/05/27 01:34:28;;;;;;;10.63;4.45;;;;;;;14.41;91.60;101877.84;5115999;28;20055;-61
2022/05/27 01:37:12;;;;;;;12.20;4.03;;;;;;;14.26;92.38;101873.63;5115714;28;20027;-64
2022/05/27 01:39:48;;;;;;;10.73;4.70;;;;;;;14.31;93.41;101877.97;5115998;28;20020;-61
2022/05/27 01:42:52;;;;;;;9.27;4.97;;;;;;;14.33;92.29;101877.06;5115477;28;20427;-62
2022/05/27 01:45:21;;;;;;;15.07;5.05;;;;;;;14.27;93.77;101880.63;5104240;28;20039;-61
2022/05/27 01:48:03;;;;;;;12.40;5.05;;;;;;;14.21;94.34;101870.16;5115512;28;20080;-62
2022/05/27 01:50:36;;;;;;;11.00;4.78;;;;;;;14.18;95.69;101867.59;5115739;28;20027;-62
2022/05/27 01:53:17;;;;;;;12.85;5.40;;;;;;;14.10;96.57;101874.69;5115366;28;20115;-61
2022/05/27 01:55:49;;;;;;;11.27;5.15;;;;;;;14.05;97.27;101884.38;5116146;28;20338;-62
2022/05/27 01:58:21;;;;;;;10.05;4.70;;;;;;;14.02;97.37;101871.28;5115501;28;20042;-61
2022/05/27 02:00:49;;;;;;;13.30;5.43;;;;;;;13.97;98.94;101875.72;5115366;28;20055;-62
2022/05/27 02:03:23;;;;;;;11.07;5.28;;;;;;;14.02;99.14;101873.91;5115570;28;20031;-62
2022/05/27 02:05:57;;;;;;;10.95;5.47;;;;;;;13.85;100.00;101870.59;5117890;28;20028;-63
2022/05/27 02:08:27;;;;;;;11.15;5.47;;;;;;;13.62;100.00;101864.69;5119914;28;20028;-61
2022/05/27 02:11:08;;;;;;;12.88;6.63;;;;;;;13.64;100.00;101869.06;5119699;28;20042;-61
2022/05/27 02:14:02;;;;;;;15.35;6.55;;;;;;;13.62;100.00;101869.94;5119396;28;20096;-61
2022/05/27 02:16:39;;;;;;;16.80;6.45;;;;;;;13.68;100.00;101872.53;5116541;28;20047;-62
2022/05/27 02:19:13;;;;;;;20.92;7.50;;;;;;;13.51;100.00;101870.91;5119618;28;20361;-61
2022/05/27 02:21:51;;;;;;;13.52;6.10;;;;;;;13.53;100.00;101874.38;5119582;28;20139;-61
2022/05/27 02:24:22;;;;;;;15.00;6.57;;;;;;;13.38;100.00;101860.50;5119780;28;20043;-61
2022/05/27 02:26:59;;;;;;;12.02;6.57;;;;;;;13.46;100.00;101875.34;5119331;28;20024;-63
2022/05/27 02:29:30;;;;;;;14.07;7.35;;;;;;;13.55;100.00;101867.34;5119478;28;20036;-61
2022/05/27 02:32:02;;;;;;;18.35;7.60;;;;;;;13.49;100.00;101872.69;5119306;28;20062;-63
2022/05/27 02:37:29;;;;;;;16.42;7.90;;;;;;;13.33;100.00;101871.09;5118894;28;20042;-61
2022/05/27 02:39:58;;;;;;;17.25;8.52;;;;;;;13.37;100.00;101872.78;5118513;28;20331;-62
2022/05/27 02:42:50;;;;;;;14.88;8.40;;;;;;;13.47;100.00;101860.44;5119018;28;20032;-61
2022/05/27 02:45:22;;;;;;;16.67;8.50;;;;;;;13.40;100.00;101861.38;5118828;28;20058;-61
2022/05/27 02:48:11;;;;;;;16.33;8.68;;;;;;;13.36;100.00;101852.63;5119189;28;20038;-61
2022/05/27 02:51:07;;;;;;;18.33;9.30;;;;;;;13.30;100.00;101860.59;5119133;28;20039;-62
2022/05/27 02:53:44;;;;;;;16.67;9.20;;;;;;;13.37;100.00;101864.91;5118816;28;20019;-64
2022/05/27 02:56:21;;;;;;;14.57;9.30;;;;;;;13.35;100.00;101864.03;5119080;28;20046;-62
2022/05/27 02:58:47;;;;;;;15.07;9.48;;;;;;;13.32;100.00;101864.09;5118830;28;20028;-62
2022/05/27 03:01:12;;;;;;;14.80;9.30;;;;;;;13.29;100.00;101866.72;5118584;28;20431;-61
2022/05/27 03:03:38;;;;;;;18.48;9.23;;;;;;;13.27;100.00;101859.75;5118796;28;20125;-63
2022/05/27 03:06:26;;;;;;;17.50;10.00;;;;;;;13.22;100.00;101862.41;5118477;28;20034;-62
2022/05/27 03:09:12;;;;;;;17.45;10.60;;;;;;;13.21;100.00;101847.50;5118585;28;20042;-61
2022/05/27 03:11:57;;;;;;;17.80;9.55;;;;;;;13.21;100.00;101851.00;5118531;28;20032;-62
2022/05/27 03:14:38;;;;;;;17.08;9.60;;;;;;;13.20;100.00;101844.00;5118331;28;20027;-61
2022/05/27 03:17:25;;;;;;;17.15;10.32;;;;;;;13.14;100.00;101837.91;5118535;28;20400;-66
2022/05/27 03:20:07;;;;;;;18.73;10.55;;;;;;;13.18;100.00;101853.66;5118376;28;20400;-62
2022/05/27 03:22:50;;;;;;;16.80;10.00;;;;;;;13.23;100.00;101851.88;5118401;28;20063;-62
2022/05/27 03:25:38;;;;;;;18.17;11.82;;;;;;;13.16;100.00;101857.22;5118236;28;20059;-63
2022/05/27 03:28:18;;;;;;;18.33;11.63;;;;;;;13.14;100.00;101848.44;5118322;28;20457;-61
2022/05/27 03:31:00;;;;;;;19.92;12.73;;;;;;;13.16;100.00;101854.59;5118147;28;20015;-62
2022/05/27 03:33:42;;;;;;;18.15;12.23;;;;;;;13.20;100.00;101851.88;5117999;28;20110;-62
2022/05/27 03:36:30;;;;;;;17.77;13.13;;;;;;;13.22;100.00;101858.00;5118189;28;20024;-62
2022/05/27 03:39:01;;;;;;;22.25;13.80;;;;;;;13.21;100.00;101855.41;5117674;28;20111;-62
2022/05/27 03:41:32;;;;;;;23.20;14.18;;;;;;;13.21;100.00;101850.13;5118062;28;20027;-63
2022/05/27 03:43:57;;;;;;;23.20;14.40;;;;;;;13.19;100.00;101841.38;5114539;28;20046;-63
2022/05/27 03:46:36;;;;;;;22.63;14.20;;;;;;;13.22;100.00;101857.13;5117873;28;20031;-61
2022/05/27 03:49:03;;;;;;;25.55;15.00;;;;;;;13.27;100.00;101860.63;5117811;28;20027;-61
2022/05/27 03:51:33;;;;;;;23.98;16.50;;;;;;;13.28;100.00;101859.72;5117689;28;20054;-62
2022/05/27 03:54:04;;;;;;;23.38;15.82;;;;;;;13.28;100.00;101866.75;5117795;28;20035;-62
2022/05/27 03:56:35;;;;;;;19.50;14.50;;;;;;;13.26;100.00;101874.63;5117941;28;20171;-62
2022/05/27 03:59:02;;;;;;;22.45;15.10;;;;;;;13.30;100.00;101867.59;5117909;28;20043;-62
2022/05/27 04:01:31;;;;;;;16.83;11.45;;;;;;;13.28;100.00;101851.84;5117460;28;20065;-62
2022/05/27 04:04:00;;;;;;;12.57;8.45;;;;;;;13.28;100.00;101861.50;5117381;28;20031;-63
2022/05/27 04:06:27;;;;;;;13.10;8.63;;;;;;;13.14;100.00;101849.31;5117171;28;20027;-62
2022/05/27 04:08:52;;;;;;;10.82;7.55;;;;;;;13.16;100.00;101859.84;5117480;28;20027;-62
2022/05/27 04:11:19;;;;;;;12.95;7.78;;;;;;;13.16;100.00;101857.22;5117606;28;20035;-62
2022/05/27 04:13:44;;;;;;;12.30;7.38;;;;;;;13.06;100.00;101861.63;5117328;28;20117;-62
2022/05/27 04:16:10;;;;;;;14.85;7.15;;;;;;;12.90;100.00;101844.22;5117445;28;20118;-62
2022/05/27 04:18:35;;;;;;;10.27;6.82;;;;;;;13.09;100.00;101873.84;5116885;28;20044;-62
2022/05/27 04:21:00;;;;;;;13.20;6.88;;;;;;;12.86;100.00;101835.47;5117609;28;20031;-62
2022/05/27 04:23:25;;;;;;;12.70;7.43;;;;;;;13.07;100.00;101860.72;5116923;28;20054;-62
2022/05/27 04:25:51;;;;;;;13.95;8.85;;;;;;;13.10;100.00;101872.97;5117101;28;20027;-62
2022/05/27 04:28:17;;;;;;;15.32;9.70;;;;;;;13.13;100.00;101870.34;5116511;28;20439;-62
2022/05/27 04:30:45;;;;;;;18.98;10.57;;;;;;;13.18;100.00;101869.44;5116784;28;20043;-62
2022/05/27 04:33:10;;;;;;;17.30;11.50;;;;;;;13.24;100.00;101866.75;5116802;28;20085;-62
2022/05/27 04:35:36;;;;;;;18.85;11.35;;;;;;;13.17;100.00;101862.41;5117061;28;20032;-62
2022/05/27 04:38:01;;;;;;;19.98;11.48;;;;;;;13.32;100.00;101877.22;5116864;28;20042;-62
2022/05/27 04:40:27;;;;;;;21.90;11.77;;;;;;;13.26;100.00;101863.25;5116926;28;20438;-62
2022/05/27 04:42:52;;;;;;;19.35;12.18;;;;;;;13.33;100.00;101860.56;5116591;28;20110;-61
2022/05/27 04:45:20;;;;;;;19.08;12.45;;;;;;;13.38;100.00;101874.53;5116936;28;20035;-62
2022/05/27 04:47:45;;;;;;;21.40;13.18;;;;;;;13.21;100.00;101848.38;5116630;28;20027;-62
2022/05/27 04:50:11;;;;;;;20.13;13.38;;;;;;;13.34;100.00;101867.53;5116474;28;20035;-62
2022/05/27 04:52:38;;;;;;;24.75;14.50;;;;;;;13.42;100.00;101870.13;5116777;28;20035;-62
2022/05/27 04:55:07;;;;;;;24.25;14.07;;;;;;;13.48;100.00;101867.44;5116569;28;20045;-62
2022/05/27 04:57:44;;;;;;;28.75;15.15;;;;;;;13.53;100.00;101874.38;5116594;28;20031;-62
2022/05/27 05:00:17;;;;;;;25.75;14.75;;;;;;;13.64;100.00;101878.69;5116217;28;20027;-61
2022/05/27 05:02:43;;;;;;;24.30;14.20;;;;;;;13.66;100.00;101874.31;5116142;28;20243;-62
2022/05/27 05:05:10;;;;;;;23.33;13.43;;;;;;;13.65;100.00;101872.56;5116445;28;20127;-62
2022/05/27 05:07:40;;;;;;;22.77;13.98;;;;;;;13.74;100.00;101881.22;5116182;28;20049;-62
2022/05/27 05:10:06;;;;;;;26.75;14.18;;;;;;;13.86;100.00;101891.59;5116280;28;20024;-62
2022/05/27 05:12:31;;;;;;;23.58;14.73;;;;;;;13.91;100.00;101883.66;5116369;28;20359;-62
2022/05/27 05:14:56;;;;;;;23.88;13.93;;;;;;;13.94;100.00;101881.88;5115539;28;20031;-62
2022/05/27 05:17:22;;;;;;;24.88;13.65;;;;;;;13.89;100.00;101869.66;5113283;28;20332;-62
2022/05/27 05:19:48;;;;;;;24.65;14.68;;;;;;;14.03;100.00;101888.78;5115836;28;20032;-62
2022/05/27 05:22:13;;;;;;;26.05;14.75;;;;;;;14.12;100.00;101888.72;5115953;28;20026;-62
2022/05/27 05:24:39;;;;;;;25.45;14.50;;;;;;;14.10;100.00;101898.38;5115915;28;20047;-62
2022/05/27 05:27:05;;;;;;;24.60;13.60;;;;;;;14.11;100.00;101896.63;5115809;28;20027;-62
2022/05/27 05:29:30;;;;;;;26.55;13.85;;;;;;;14.04;100.00;101880.00;5115816;28;20032;-62
2022/05/27 05:31:55;;;;;;;27.95;13.90;;;;;;;14.05;100.00;101904.56;5115806;28;20032;-62
2022/05/27 05:34:20;;;;;;;27.15;14.10;;;;;;;14.03;100.00;101911.59;5115723;28;20028;-62
2022/05/27 05:36:46;;;;;;;28.00;14.63;;;;;;;14.04;100.00;101905.47;5116114;28;20031;-62
2022/05/27 05:39:11;;;;;;;29.77;14.77;;;;;;;14.16;100.00;101914.13;5115143;28;20115;-62
2022/05/27 05:41:38;;;;;;;28.48;13.38;;;;;;;14.19;100.00;101913.22;5115076;28;20036;-62
2022/05/27 05:44:06;;;;;;;27.40;13.20;;;;;;;14.23;100.00;101910.50;5115659;28;20032;-62
2022/05/27 05:46:33;;;;;;;31.85;12.60;;;;;;;14.25;100.00;101918.38;5115523;28;20338;-62
2022/05/27 05:48:59;;;;;;;27.33;12.25;;;;;;;14.19;100.00;101922.00;5115564;28;20447;-62
2022/05/27 05:51:24;;;;;;;22.65;10.85;;;;;;;14.12;100.00;101917.66;5115636;28;20066;-62
2022/05/27 05:53:49;;;;;;;26.48;10.77;;;;;;;14.08;100.00;101921.22;5115738;28;20119;-62
2022/05/27 05:56:15;;;;;;;22.90;11.25;;;;;;;14.13;100.00;101929.06;5097708;28;20146;-61
2022/05/27 05:58:40;;;;;;;25.50;9.38;;;;;;;13.94;100.00;101896.81;5115467;28;20093;-62
2022/05/27 06:01:06;;;;;;;20.08;9.43;;;;;;;14.05;100.00;101921.22;5115140;28;20027;-62
2022/05/27 06:03:32;;;;;;;22.55;9.40;;;;;;;14.17;100.00;101925.53;5115456;28;20030;-62
2022/05/27 06:05:57;;;;;;;21.33;10.68;;;;;;;14.23;100.00;101913.13;5115479;28;20036;-61
2022/05/27 06:08:22;;;;;;;24.58;9.02;;;;;;;14.28;100.00;101915.72;5115490;28;20393;-62
2022/05/27 06:10:48;;;;;;;17.15;7.93;;;;;;;14.17;100.00;101915.88;5115547;28;20439;-61
2022/05/27 06:13:14;;;;;;;17.20;8.57;;;;;;;14.14;100.00;101915.00;5115307;28;20179;-62
2022/05/27 06:15:40;;;;;;;18.85;8.00;;;;;;;14.15;100.00;101915.00;5115195;28;20023;-61
2022/05/27 06:18:06;;;;;;;16.38;7.07;;;;;;;14.17;100.00;101912.34;5115028;28;20409;-62
2022/05/27 06:20:33;;;;;;;19.65;7.32;;;;;;;14.26;100.00;101914.88;5115505;28;20111;-62
2022/05/27 06:22:59;;;;;;;19.27;6.60;;;;;;;14.27;100.00;101924.50;5115294;28;20111;-62
2022/05/27 06:25:24;;;;;;;12.50;5.63;;;;;;;14.31;100.00;101926.22;5115448;28;20118;-62
2022/05/27 06:34:23;;;;;;;15.85;6.00;;;;;;;14.27;100.00;101935.91;5115034;28;20035;-63
2022/05/27 06:36:04;;;;;;;17.27;5.00;;;;;;;14.48;100.00;101934.84;5115416;28;20108;-62
2022/05/27 06:38:29;;;;;;;17.27;5.50;;;;;;;14.32;100.00;101927.97;5115621;28;20027;-61
2022/05/27 06:40:55;;;;;;;12.48;4.80;;;;;;;14.44;100.00;101945.41;5115186;28;20045;-61
2022/05/27 06:43:20;;;;;;;12.27;5.18;;;;;;;14.49;100.00;101947.13;5115235;28;20039;-62
2022/05/27 06:45:45;;;;;;;11.57;4.15;;;;;;;14.55;100.00;101938.25;5115103;28;20311;-61
2022/05/27 06:48:10;;;;;;;13.68;4.32;;;;;;;14.57;100.00;101941.75;5115247;28;20023;-62
2022/05/27 06:50:37;;;;;;;12.88;4.07;;;;;;;14.61;100.00;101939.06;5112433;28;20044;-62
2022/05/27 06:53:02;;;;;;;9.82;3.50;;;;;;;14.65;100.00;101942.53;5118888;28;20066;-62
2022/05/27 06:55:28;;;;;;;10.90;2.90;;;;;;;14.69;100.00;101940.72;5118600;28;20074;-61
2022/05/27 06:57:53;;;;;;;9.05;3.20;;;;;;;14.77;100.00;101952.03;5118478;28;20071;-61
2022/05/27 07:00:18;;;;;;;13.70;3.47;;;;;;;14.79;100.00;101943.22;5118791;28;20070;-61
2022/05/27 07:02:43;;;;;;;10.13;3.90;;;;;;;14.93;100.00;101951.81;5115389;28;20054;-63
2022/05/27 07:05:09;;;;;;;8.60;3.30;;;;;;;14.95;99.79;101950.03;5118603;28;20039;-62
2022/05/27 07:07:35;;;;;;;9.18;3.58;;;;;;;15.05;99.59;101945.50;5118621;28;20457;-62
2022/05/27 07:10:00;;;;;;;9.82;3.10;;;;;;;15.26;93.31;101949.56;5118464;28;20027;-62
2022/05/27 07:12:26;;;;;;;8.57;2.92;;;;;;;15.32;94.53;101950.38;5118616;28;20442;-61
2022/05/27 07:14:51;;;;;;;9.43;3.05;;;;;;;15.44;95.94;101954.56;5118890;28;20027;-62
2022/05/27 07:17:16;;;;;;;11.32;3.30;;;;;;;15.49;92.74;101949.22;5118361;28;20110;-62
2022/05/27 07:19:42;;;;;;;9.15;3.80;;;;;;;15.48;92.43;101950.13;5118479;28;20035;-62
2022/05/27 07:22:09;;;;;;;9.38;3.80;;;;;;;15.59;92.67;101942.91;5118230;28;20032;-62
2022/05/27 07:24:34;;;;;;;7.70;3.53;;;;;;;15.60;90.49;101948.19;5118563;28;20447;-62
2022/05/27 07:26:59;;;;;;;7.07;3.67;;;;;;;15.86;88.34;101944.25;5118346;28;20053;-61
2022/05/27 07:29:25;;;;;;;9.73;3.40;;;;;;;16.16;87.03;101950.72;5118245;28;20346;-62
2022/05/27 07:31:50;;;;;;;7.35;3.20;;;;;;;16.19;84.59;101946.25;5118239;28;20035;-63
2022/05/27 07:34:15;;;;;;;8.65;3.58;;;;;;;16.15;84.74;101954.25;5118285;28;20024;-62
2022/05/27 07:36:41;;;;;;;5.35;2.90;;;;;;;15.98;84.82;101936.09;5118005;28;20443;-62
2022/05/27 07:39:07;;;;;;;8.32;3.00;;;;;;;15.94;82.79;101952.88;5117878;28;20084;-63
2022/05/27 07:41:33;;;;;;;9.80;3.40;;;;;;;15.84;83.57;101949.53;5117782;28;20034;-63
2022/05/27 07:44:01;;;;;;;10.73;3.35;;;;;;;15.82;80.91;101955.75;5118293;28;20031;-63
2022/05/27 07:46:29;;;;;;;8.82;3.22;;;;;;;15.84;86.03;101953.94;5117797;28;20339;-63
2022/05/27 07:48:55;;;;;;;11.20;3.10;;;;;;;15.91;82.41;101961.75;5117778;28;20111;-62
2022/05/27 07:51:21;;;;;;;9.02;3.42;;;;;;;15.89;80.60;101949.47;5117153;28;20176;-64
2022/05/27 07:53:46;;;;;;;9.90;3.40;;;;;;;15.97;81.12;101955.47;5117529;28;20032;-62
2022/05/27 07:56:13;;;;;;;9.00;3.30;;;;;;;16.09;80.90;101960.53;5117386;28;20398;-62
2022/05/27 07:58:38;;;;;;;7.10;3.30;;;;;;;16.17;79.68;101952.47;5117572;28;20347;-62
2022/05/27 08:01:05;;;;;;;7.97;3.22;;;;;;;16.10;79.73;101957.00;5117702;28;20047;-63
2022/05/27 08:03:30;;;;;;;10.90;3.30;;;;;;;15.96;80.75;101935.25;5116703;28;20043;-62
2022/05/27 08:05:58;;;;;;;8.13;3.60;;;;;;;16.12;79.30;101964.88;5117308;28;20027;-64
2022/05/27 08:08:23;;;;;;;7.97;4.20;;;;;;;16.12;78.99;101951.66;5117562;28;20027;-63
2022/05/27 08:10:49;;;;;;;7.95;3.75;;;;;;;16.28;79.90;101959.28;5117689;28;20465;-62
2022/05/27 08:13:15;;;;;;;9.27;3.58;;;;;;;16.47;78.41;101966.84;5117190;28;20027;-63
2022/05/27 08:15:40;;;;;;;8.45;3.75;;;;;;;16.75;76.37;101962.78;5117281;28;20035;-63
2022/05/27 08:18:06;;;;;;;9.50;3.50;;;;;;;16.58;75.96;101965.75;5117147;28;20043;-63
2022/05/27 08:20:34;;;;;;;7.82;3.45;;;;;;;16.34;77.47;101982.94;5117166;28;20039;-62
2022/05/27 08:23:00;;;;;;;6.93;2.92;;;;;;;16.15;78.70;101992.09;5116816;28;20055;-62
2022/05/27 08:25:27;;;;;;;9.80;3.05;;;;;;;16.03;79.43;101992.34;5117441;28;20035;-63
2022/05/27 08:27:54;;;;;;;10.38;2.95;;;;;;;16.07;80.17;101990.53;5117030;28;20028;-63
2022/05/27 08:30:23;;;;;;;6.78;3.10;;;;;;;15.99;81.29;101982.72;5116962;28;20027;-62
2022/05/27 08:32:49;;;;;;;13.00;4.07;;;;;;;15.98;79.94;101988.91;5116944;28;20468;-63
2022/05/27 08:38:01;;;;;;;9.75;3.25;;;;;;;16.17;79.25;101992.09;5117111;28;20074;-63
2022/05/27 08:41:04;;;;;;;8.75;3.35;;;;;;;16.56;79.99;101993.97;5116604;28;20412;-63
2022/05/27 08:43:33;;;;;;;;;;;;;;;16.86;77.83;101981.94;5117081;28;20062;-63
2022/05/27 08:46:13;;;;;;;7.95;3.47;;;;;;;17.07;77.42;101990.31;5116524;28;19912;-63
2022/05/27 08:48:41;;;;;;;7.97;3.67;;;;;;;16.92;73.74;101992.38;5116616;28;20521;-62
2022/05/27 08:51:29;;;;;;;11.57;3.75;;;;;;;16.74;76.80;101971.63;5116676;28;20035;-64
2022/05/27 08:53:59;;;;;;;7.82;3.30;;;;;;;16.99;74.54;101988.69;5116230;28;20057;-63
2022/05/27 08:59:32;;;;;;;9.15;3.40;;;;;;;17.08;75.03;101995.56;5116768;28;20096;-63
2022/05/27 09:02:26;;;;;;;9.68;3.35;;;;;;;17.54;75.18;101992.72;5116449;28;20100;-63
2022/05/27 09:05:06;;;;;;;9.02;3.20;;;;;;;17.99;72.05;101998.72;5116405;28;20044;-63
2022/05/27 09:07:39;;;;;;;11.55;2.90;;;;;;;18.66;67.59;101998.69;5116182;28;20050;-63
2022/05/27 09:10:26;;;;;;;9.63;2.75;;;;;;;19.57;60.22;101997.72;5116167;28;20066;-62
2022/05/27 09:13:19;;;;;;;11.43;2.70;;;;;;;20.56;57.74;102000.50;5074231;28;20104;-64
2022/05/27 09:15:56;;;;;;;7.15;2.28;;;;;;;21.74;54.07;101989.66;5116159;28;20038;-64
2022/05/27 09:18:27;;;;;;;6.30;2.60;;;;;;;21.76;51.57;101987.81;5116159;28;20032;-63
2022/05/27 09:21:24;;;;;;;6.93;2.60;;;;;;;21.21;56.21;101996.28;5115697;28;20193;-63
2022/05/27 09:24:00;;;;;;;9.13;2.40;;;;;;;21.16;52.83;101999.97;5115980;28;20471;-63
2022/05/27 09:26:54;;;;;;;9.88;2.67;;;;;;;20.62;54.85;102008.25;5115779;28;20035;-63
2022/05/27 09:29:37;;;;;;;9.95;2.38;;;;;;;20.30;55.16;102004.03;5115795;28;20039;-64
2022/05/27 09:32:11;;;;;;;7.20;2.70;;;;;;;19.46;53.96;102013.94;5115720;28;20035;-63
2022/05/27 09:34:40;;;;;;;7.75;2.47;;;;;;;18.87;53.90;102016.66;5115994;28;20055;-63
2022/05/27 09:37:09;;;;;;;7.68;2.30;;;;;;;18.35;56.17;102020.72;5115752;28;20034;-64
2022/05/27 09:39:34;;;;;;;7.45;2.35;;;;;;;18.25;57.19;102021.84;5115737;28;20035;-63
2022/05/27 09:42:13;;;;;;;8.25;3.03;;;;;;;18.59;59.11;102028.94;5115708;28;20031;-63
2022/05/27 09:44:53;;;;;;;11.88;3.00;;;;;;;18.83;62.16;102022.06;5115811;28;20042;-64
2022/05/27 09:47:21;;;;;;;23.98;3.55;;;;;;;18.97;57.74;102043.75;5115647;28;20046;-62
2022/05/27 09:49:58;;;;;;;11.27;3.17;;;;;;;18.66;58.45;102039.34;5115637;28;20457;-62
2022/05/27 09:52:24;;;;;;;8.85;2.67;;;;;;;18.61;59.46;102043.03;5115664;28;20036;-63
2022/05/27 09:54:59;;;;;;;7.63;2.40;;;;;;;18.62;56.83;102040.31;5115551;28;20024;-64
2022/05/27 09:57:27;;;;;;;10.73;2.85;;;;;;;18.71;58.31;102040.06;5115607;28;20028;-63
2022/05/27 09:59:59;;;;;;;11.55;2.70;;;;;;;18.68;54.56;102050.78;5115243;28;20065;-63
2022/05/27 10:02:35;;;;;;;9.70;2.78;;;;;;;18.68;54.96;102044.59;5115551;28;20032;-63
2022/05/27 10:05:15;;;;;;;10.93;2.80;;;;;;;18.91;55.72;102042.16;5115154;28;20043;-62
2022/05/27 10:07:51;;;;;;;14.38;3.50;;;;;;;18.97;53.94;102046.41;5115357;28;20032;-64
2022/05/27 10:10:19;;;;;;;10.50;2.80;;;;;;;18.91;54.01;102044.78;5115616;28;20107;-64
2022/05/27 10:12:45;;;;;;;9.35;2.75;;;;;;;18.70;53.63;102048.09;5115591;28;20067;-63
2022/05/27 10:15:35;;;;;;;9.32;2.80;;;;;;;18.82;54.17;102046.84;5115274;28;20058;-62
2022/05/27 10:18:17;;;;;;;6.00;2.28;;;;;;;19.01;54.56;102042.75;5114941;28;20350;-62
2022/05/27 10:20:47;;;;;;;8.30;2.58;;;;;;;19.00;50.64;102047.19;5115057;28;20405;-64
2022/05/27 10:23:25;;;;;;;10.93;2.63;;;;;;;19.21;49.42;102036.88;5115187;28;20124;-62
2022/05/27 10:25:50;;;;;;;6.80;2.60;;;;;;;19.07;48.32;102047.88;5116117;28;20032;-62
2022/05/27 10:28:27;;;;;;;11.68;2.90;;;;;;;19.27;50.95;102049.94;5119270;28;20346;-63
2022/05/27 10:31:14;;;;;;;10.65;2.63;;;;;;;19.35;50.73;102043.50;5119582;28;20072;-62
2022/05/27 10:33:42;;;;;;;8.57;2.72;;;;;;;19.23;48.88;102038.53;5119304;28;20401;-61
2022/05/27 10:36:45;;;;;;;9.20;2.38;;;;;;;19.12;51.40;102057.44;5119310;28;20446;-64
2022/05/27 10:39:21;;;;;;;7.40;2.50;;;;;;;19.13;51.98;102037.97;5119466;28;20346;-63
2022/05/27 10:42:26;;;;;;;8.93;2.35;;;;;;;19.44;51.99;102048.50;5118923;28;20057;-64
2022/05/27 10:45:03;;;;;;;9.15;2.55;;;;;;;19.98;51.16;102039.72;5119169;28;20032;-63
2022/05/27 10:47:59;;;;;;;10.95;2.55;;;;;;;19.89;49.50;102044.47;5118872;28;20115;-64
2022/05/27 10:50:51;;;;;;;8.45;2.75;;;;;;;19.55;51.79;102045.56;5119182;28;20027;-62
2022/05/27 10:53:30;;;;;;;8.67;2.67;;;;;;;18.98;51.20;102048.16;5118532;28;20023;-63
2022/05/27 10:56:17;;;;;;;10.02;2.95;;;;;;;18.69;49.89;102056.94;5118800;28;20307;-63
2022/05/27 11:02:04;;;;;;;11.30;2.55;;;;;;;19.04;49.48;102054.16;5118985;28;20092;-63
2022/05/27 11:05:01;;;;;;;10.98;2.65;;;;;;;18.98;47.51;102054.34;5118795;28;20023;-63
2022/05/27 11:08:01;;;;;;;10.85;2.45;;;;;;;19.36;48.05;102055.84;5118351;28;20028;-62
2022/05/27 11:10:35;;;;;;;10.30;2.80;;;;;;;19.69;44.42;102043.34;5118668;28;20054;-62
2022/05/27 11:16:31;;;;;;;7.10;2.28;;;;;;;20.06;45.64;102037.69;5118089;28;20081;-64
2022/05/27 11:19:33;;;;;;;8.63;2.53;;;;;;;20.20;46.85;102053.16;5114159;28;20119;-62
2022/05/27 11:22:17;;;;;;;10.15;2.67;;;;;;;20.38;46.73;102049.03;5118311;28;20095;-62
2022/05/27 11:25:01;;;;;;;9.80;2.72;;;;;;;20.43;47.48;102052.41;5118207;28;20042;-64
2022/05/27 11:27:50;;;;;;;11.48;2.65;;;;;;;20.29;46.06;102054.63;5118044;28;20088;-63
2022/05/27 11:30:27;;;;;;;9.95;2.63;;;;;;;19.77;47.35;102049.25;5118274;28;20472;-64
2022/05/27 11:33:31;;;;;;;12.20;3.10;;;;;;;19.78;47.41;102053.66;5118018;28;20032;-62
2022/05/27 11:36:10;;;;;;;6.57;2.20;;;;;;;19.91;45.59;102053.28;5102131;28;20052;-62
2022/05/27 11:39:12;;;;;;;10.85;2.50;;;;;;;19.72;47.70;102063.63;5116856;28;20111;-62
2022/05/27 11:42:03;;;;;;;9.43;2.60;;;;;;;19.44;48.75;102063.56;5118226;28;20034;-63
2022/05/27 11:44:48;;;;;;;12.40;3.33;;;;;;;18.98;49.49;102059.63;5117939;28;20505;-62
2022/05/27 11:47:31;;;;;;;9.35;2.40;;;;;;;18.79;50.27;102058.41;5117894;28;20312;-62
2022/05/27 11:50:15;;;;;;;9.93;2.50;;;;;;;18.79;49.23;102069.03;5117828;28;20389;-63
2022/05/27 11:53:07;;;;;;;7.80;2.70;;;;;;;18.84;49.22;102063.59;5117775;28;20032;-63
2022/05/27 11:55:38;;;;;;;9.60;2.75;;;;;;;18.96;48.43;102068.56;5117698;28;20055;-62
2022/05/27 11:58:22;;;;;;;11.00;2.70;;;;;;;19.24;48.08;102072.13;5117650;28;20039;-63
2022/05/27 12:01:02;;;;;;;10.68;2.90;;;;;;;19.38;48.03;102077.03;5117683;28;20032;-63
2022/05/27 12:03:48;;;;;;;8.63;2.78;;;;;;;19.63;44.74;102063.91;5117759;28;20038;-64